ARG1777 SABE-SARI
Flight info
| Callsign | ARG1777 |
|---|---|
| Flight time | 1h 33m |
| Altitude | 35000 |
| Route | LANDA4B LANDA UN785 GEMSU UT667 DOKBA DOKBA3M |
| Aircraft | B738/M-SDE2E3FGHIRWXY/LB1 |
Departure
| Time | 2026-04-20 15:37 |
|---|---|
| Airport | Aeroparque Jorge Newbery (SABE) |
Arrival
| Time | 2026-04-20 17:10 |
|---|---|
| Airport | Cataratas Del Iguazú International Airport (SARI) |
| Time | Latitude | Longitude | Altitude | Speed | Heading |
|---|---|---|---|---|---|
| 2026-04-20 14:36 | -34.55803 | -58.41245 | 26 ft | 0 kts | 40° |
| 2026-04-20 15:20 | -34.55810 | -58.41252 | 26 ft | 4 kts | 33° |
| 2026-04-20 15:20 | -34.55834 | -58.41262 | 31 ft | 4 kts | 350° |
| 2026-04-20 15:20 | -34.55856 | -58.41249 | 26 ft | 4 kts | 311° |
| 2026-04-20 15:21 | -34.55871 | -58.41222 | 26 ft | 4 kts | 301° |
| 2026-04-20 15:21 | -34.55885 | -58.41197 | 26 ft | 1 kts | 310° |
| 2026-04-20 15:24 | -34.55883 | -58.41199 | 26 ft | 2 kts | 310° |
| 2026-04-20 15:24 | -34.55866 | -58.41225 | 26 ft | 7 kts | 310° |
| 2026-04-20 15:25 | -34.55877 | -58.41283 | 27 ft | 9 kts | 216° |
| 2026-04-20 15:25 | -34.55902 | -58.41345 | 27 ft | 9 kts | 285° |
| 2026-04-20 15:25 | -34.55874 | -58.41418 | 28 ft | 10 kts | 297° |
| 2026-04-20 15:25 | -34.55842 | -58.41493 | 26 ft | 10 kts | 297° |
| 2026-04-20 15:26 | -34.55808 | -58.41574 | 26 ft | 11 kts | 297° |
| 2026-04-20 15:26 | -34.55774 | -58.41657 | 29 ft | 11 kts | 297° |
| 2026-04-20 15:26 | -34.55740 | -58.41737 | 25 ft | 11 kts | 297° |
| 2026-04-20 15:26 | -34.55698 | -58.41820 | 25 ft | 12 kts | 304° |
| 2026-04-20 15:27 | -34.55654 | -58.41900 | 27 ft | 11 kts | 304° |
| 2026-04-20 15:27 | -34.55610 | -58.41978 | 27 ft | 11 kts | 304° |
| 2026-04-20 15:27 | -34.55566 | -58.42052 | 26 ft | 11 kts | 307° |
| 2026-04-20 15:27 | -34.55522 | -58.42123 | 26 ft | 10 kts | 307° |
| 2026-04-20 15:28 | -34.55480 | -58.42192 | 27 ft | 10 kts | 306° |
| 2026-04-20 15:28 | -34.55440 | -58.42256 | 27 ft | 9 kts | 307° |
| 2026-04-20 15:28 | -34.55430 | -58.42272 | 26 ft | 0 kts | 307° |
| 2026-04-20 15:30 | -34.55429 | -58.42274 | 26 ft | 1 kts | 307° |
| 2026-04-20 15:30 | -34.55412 | -58.42301 | 29 ft | 7 kts | 307° |
| 2026-04-20 15:30 | -34.55375 | -58.42362 | 29 ft | 10 kts | 302° |
| 2026-04-20 15:31 | -34.55367 | -58.42389 | 26 ft | 0 kts | 283° |
| 2026-04-20 15:35 | -34.55365 | -58.42400 | 30 ft | 3 kts | 282° |
| 2026-04-20 15:35 | -34.55359 | -58.42459 | 30 ft | 12 kts | 265° |
| 2026-04-20 15:35 | -34.55406 | -58.42507 | 30 ft | 7 kts | 159° |
| 2026-04-20 15:35 | -34.55431 | -58.42460 | 30 ft | 0 kts | 125° |
| 2026-04-20 15:36 | -34.55432 | -58.42459 | 26 ft | 3 kts | 125° |
| 2026-04-20 15:37 | -34.55605 | -58.42148 | 27 ft | 91 kts | 124° |
| 2026-04-20 15:37 | -34.56121 | -58.41218 | 46 ft | 170 kts | 124° |
| 2026-04-20 15:37 | -34.56823 | -58.39966 | 955 ft | 180 kts | 123° |
| 2026-04-20 15:37 | -34.57363 | -58.38656 | 2375 ft | 174 kts | 100° |
| 2026-04-20 15:38 | -34.57176 | -58.37077 | 2902 ft | 207 kts | 69° |
| 2026-04-20 15:38 | -34.56418 | -58.35566 | 3580 ft | 206 kts | 50° |
| 2026-04-20 15:38 | -34.55393 | -58.34540 | 4779 ft | 184 kts | 34° |
| 2026-04-20 15:38 | -34.54634 | -58.33961 | 4961 ft | 202 kts | 32° |
| 2026-04-20 15:39 | -34.53376 | -58.32994 | 5090 ft | 229 kts | 32° |
| 2026-04-20 15:39 | -34.51990 | -58.31924 | 5090 ft | 240 kts | 32° |
| 2026-04-20 15:39 | -34.50040 | -58.30421 | 5086 ft | 259 kts | 32° |
| 2026-04-20 15:39 | -34.48452 | -58.29374 | 5082 ft | 260 kts | 17° |
| 2026-04-20 15:40 | -34.46659 | -58.29226 | 5104 ft | 263 kts | 352° |
| 2026-04-20 15:40 | -34.45468 | -58.29665 | 5095 ft | 267 kts | 336° |
| 2026-04-20 15:40 | -34.43884 | -58.30850 | 5102 ft | 269 kts | 328° |
| 2026-04-20 15:40 | -34.42330 | -58.32130 | 5128 ft | 271 kts | 328° |
| 2026-04-20 15:41 | -34.40783 | -58.33404 | 5652 ft | 273 kts | 328° |
| 2026-04-20 15:41 | -34.39226 | -58.34683 | 6749 ft | 269 kts | 328° |
| 2026-04-20 15:41 | -34.37669 | -58.35957 | 7643 ft | 272 kts | 327° |
| 2026-04-20 15:41 | -34.36086 | -58.37248 | 8460 ft | 277 kts | 327° |
| 2026-04-20 15:42 | -34.34476 | -58.38558 | 9286 ft | 281 kts | 327° |
| 2026-04-20 15:42 | -34.32846 | -58.39882 | 10135 ft | 283 kts | 327° |
| 2026-04-20 15:42 | -34.31184 | -58.41234 | 10715 ft | 297 kts | 327° |
| 2026-04-20 15:42 | -34.29391 | -58.42687 | 10902 ft | 322 kts | 327° |
| 2026-04-20 15:43 | -34.27464 | -58.44248 | 11134 ft | 343 kts | 326° |
| 2026-04-20 15:43 | -34.25449 | -58.45878 | 11684 ft | 352 kts | 326° |
| 2026-04-20 15:43 | -34.23408 | -58.47529 | 12433 ft | 354 kts | 326° |
| 2026-04-20 15:43 | -34.21358 | -58.49187 | 13195 ft | 355 kts | 326° |
| 2026-04-20 15:44 | -34.19294 | -58.50856 | 13911 ft | 358 kts | 326° |
| 2026-04-20 15:44 | -34.17207 | -58.52541 | 14560 ft | 362 kts | 326° |
| 2026-04-20 15:44 | -34.15128 | -58.54218 | 15222 ft | 365 kts | 325° |
| 2026-04-20 15:44 | -34.12963 | -58.55829 | 15880 ft | 369 kts | 334° |
| 2026-04-20 15:45 | -34.10472 | -58.56630 | 16513 ft | 375 kts | 351° |
| 2026-04-20 15:45 | -34.07839 | -58.56795 | 17104 ft | 380 kts | 355° |
| 2026-04-20 15:45 | -34.05173 | -58.56889 | 17631 ft | 385 kts | 355° |
| 2026-04-20 15:45 | -34.02487 | -58.56986 | 18197 ft | 388 kts | 355° |
| 2026-04-20 15:46 | -33.99770 | -58.57097 | 18736 ft | 392 kts | 354° |
| 2026-04-20 15:46 | -33.97028 | -58.57226 | 19237 ft | 396 kts | 354° |
| 2026-04-20 15:46 | -33.94259 | -58.57359 | 19711 ft | 401 kts | 354° |
| 2026-04-20 15:46 | -33.91461 | -58.57496 | 20220 ft | 404 kts | 354° |
| 2026-04-20 15:47 | -33.88648 | -58.57629 | 20731 ft | 406 kts | 354° |
| 2026-04-20 15:47 | -33.85808 | -58.57754 | 21221 ft | 409 kts | 354° |
| 2026-04-20 15:47 | -33.82946 | -58.57878 | 21667 ft | 413 kts | 354° |
| 2026-04-20 15:47 | -33.80067 | -58.58003 | 22107 ft | 416 kts | 354° |
| 2026-04-20 15:48 | -33.77200 | -58.58127 | 22519 ft | 419 kts | 354° |
| 2026-04-20 15:48 | -33.74267 | -58.58253 | 22936 ft | 422 kts | 354° |
| 2026-04-20 15:48 | -33.71317 | -58.58381 | 23339 ft | 425 kts | 353° |
| 2026-04-20 15:48 | -33.68351 | -58.58510 | 23719 ft | 428 kts | 353° |
| 2026-04-20 15:49 | -33.65363 | -58.58640 | 24091 ft | 431 kts | 353° |
| 2026-04-20 15:49 | -33.62352 | -58.58770 | 24472 ft | 433 kts | 353° |
| 2026-04-20 15:49 | -33.59338 | -58.58901 | 24872 ft | 435 kts | 353° |
| 2026-04-20 15:49 | -33.56311 | -58.59033 | 25254 ft | 436 kts | 353° |
| 2026-04-20 15:50 | -33.53274 | -58.59165 | 25619 ft | 438 kts | 353° |
| 2026-04-20 15:50 | -33.50225 | -58.59297 | 25976 ft | 439 kts | 353° |
| 2026-04-20 15:50 | -33.47163 | -58.59429 | 26335 ft | 441 kts | 353° |
| 2026-04-20 15:50 | -33.44128 | -58.59560 | 26695 ft | 442 kts | 353° |
| 2026-04-20 15:51 | -33.41053 | -58.59692 | 27017 ft | 443 kts | 353° |
| 2026-04-20 15:51 | -33.37961 | -58.59826 | 27319 ft | 445 kts | 353° |
| 2026-04-20 15:51 | -33.34855 | -58.59961 | 27663 ft | 446 kts | 352° |
| 2026-04-20 15:51 | -33.31754 | -58.60094 | 27981 ft | 447 kts | 353° |
| 2026-04-20 15:52 | -33.28641 | -58.60228 | 28262 ft | 448 kts | 353° |
| 2026-04-20 15:52 | -33.25518 | -58.60363 | 28557 ft | 449 kts | 353° |
| 2026-04-20 15:52 | -33.22395 | -58.60497 | 28876 ft | 449 kts | 352° |
| 2026-04-20 15:53 | -33.16181 | -58.60762 | 29797 ft | 443 kts | 352° |
| 2026-04-20 15:53 | -33.13116 | -58.60893 | 30287 ft | 439 kts | 352° |
| 2026-04-20 15:53 | -33.10079 | -58.61024 | 30749 ft | 435 kts | 352° |
| 2026-04-20 15:53 | -33.07062 | -58.61154 | 31245 ft | 431 kts | 352° |
| 2026-04-20 15:54 | -33.04082 | -58.61279 | 31725 ft | 427 kts | 352° |
| 2026-04-20 15:54 | -33.01101 | -58.61131 | 32208 ft | 430 kts | 360° |
| 2026-04-20 15:54 | -32.98151 | -58.60488 | 32664 ft | 434 kts | 8° |
| 2026-04-20 15:54 | -32.95263 | -58.59409 | 33057 ft | 435 kts | 9° |
| 2026-04-20 15:55 | -32.92383 | -58.58315 | 33410 ft | 432 kts | 9° |
| 2026-04-20 15:55 | -32.89558 | -58.57256 | 33789 ft | 429 kts | 8° |
| 2026-04-20 15:55 | -32.86713 | -58.56203 | 34198 ft | 425 kts | 8° |
| 2026-04-20 15:55 | -32.83904 | -58.55170 | 34637 ft | 421 kts | 8° |
| 2026-04-20 15:56 | -32.81099 | -58.54146 | 34910 ft | 420 kts | 8° |
| 2026-04-20 15:56 | -32.78294 | -58.53128 | 34995 ft | 424 kts | 8° |
| 2026-04-20 15:56 | -32.72638 | -58.51074 | 34997 ft | 424 kts | 8° |
| 2026-04-20 15:57 | -32.67025 | -58.49030 | 35001 ft | 420 kts | 8° |
| 2026-04-20 15:57 | -32.61437 | -58.47003 | 34991 ft | 419 kts | 8° |
| 2026-04-20 15:58 | -32.55865 | -58.44981 | 35002 ft | 418 kts | 8° |
| 2026-04-20 15:58 | -32.50327 | -58.42973 | 35003 ft | 419 kts | 8° |
| 2026-04-20 15:59 | -32.44739 | -58.40953 | 35000 ft | 421 kts | 8° |
| 2026-04-20 15:59 | -32.39129 | -58.38926 | 35004 ft | 423 kts | 8° |
| 2026-04-20 16:00 | -32.33489 | -58.36889 | 35004 ft | 425 kts | 8° |
| 2026-04-20 16:00 | -32.27816 | -58.34844 | 34995 ft | 427 kts | 8° |
| 2026-04-20 16:01 | -32.22123 | -58.32798 | 34991 ft | 429 kts | 8° |
| 2026-04-20 16:01 | -32.16401 | -58.30744 | 34986 ft | 430 kts | 8° |
| 2026-04-20 16:02 | -32.10697 | -58.28683 | 34979 ft | 428 kts | 9° |
| 2026-04-20 16:02 | -32.05033 | -58.26632 | 34982 ft | 428 kts | 8° |
| 2026-04-20 16:03 | -31.99337 | -58.24609 | 34990 ft | 428 kts | 8° |
| 2026-04-20 16:03 | -31.93627 | -58.22573 | 34989 ft | 429 kts | 8° |
| 2026-04-20 16:04 | -31.87907 | -58.20530 | 34997 ft | 430 kts | 8° |
| 2026-04-20 16:04 | -31.82187 | -58.18488 | 35004 ft | 430 kts | 8° |
| 2026-04-20 16:05 | -31.76459 | -58.16446 | 34991 ft | 430 kts | 8° |
| 2026-04-20 16:05 | -31.70729 | -58.14409 | 34986 ft | 430 kts | 8° |
| 2026-04-20 16:06 | -31.65011 | -58.12373 | 34991 ft | 429 kts | 8° |
| 2026-04-20 16:06 | -31.59290 | -58.10342 | 34985 ft | 430 kts | 8° |
| 2026-04-20 16:07 | -31.53569 | -58.08315 | 34989 ft | 429 kts | 9° |
| 2026-04-20 16:07 | -31.47889 | -58.06301 | 34989 ft | 428 kts | 9° |
| 2026-04-20 16:08 | -31.42188 | -58.04284 | 34990 ft | 428 kts | 9° |
| 2026-04-20 16:08 | -31.36449 | -58.02258 | 34980 ft | 428 kts | 9° |
| 2026-04-20 16:09 | -31.30782 | -58.00258 | 34985 ft | 427 kts | 9° |
| 2026-04-20 16:09 | -31.25085 | -57.98249 | 34982 ft | 428 kts | 9° |
| 2026-04-20 16:10 | -31.19379 | -57.96237 | 35002 ft | 429 kts | 9° |
| 2026-04-20 16:10 | -31.13627 | -57.94224 | 34983 ft | 433 kts | 9° |
| 2026-04-20 16:11 | -31.07877 | -57.92204 | 34996 ft | 436 kts | 9° |
| 2026-04-20 16:11 | -31.02016 | -57.90154 | 34992 ft | 439 kts | 9° |
| 2026-04-20 16:12 | -30.96195 | -57.88115 | 34992 ft | 441 kts | 9° |
| 2026-04-20 16:12 | -30.90310 | -57.86049 | 35000 ft | 442 kts | 9° |
| 2026-04-20 16:13 | -30.84402 | -57.83985 | 35001 ft | 443 kts | 9° |
| 2026-04-20 16:13 | -30.78498 | -57.81926 | 35003 ft | 443 kts | 10° |
| 2026-04-20 16:14 | -30.72587 | -57.79867 | 34992 ft | 443 kts | 10° |
| 2026-04-20 16:14 | -30.66694 | -57.77812 | 35002 ft | 442 kts | 10° |
| 2026-04-20 16:15 | -30.60797 | -57.75744 | 34999 ft | 441 kts | 10° |
| 2026-04-20 16:15 | -30.54960 | -57.73700 | 35007 ft | 440 kts | 10° |
| 2026-04-20 16:16 | -30.49060 | -57.71639 | 34998 ft | 440 kts | 10° |
| 2026-04-20 16:16 | -30.43238 | -57.69607 | 34994 ft | 439 kts | 10° |
| 2026-04-20 16:17 | -30.37383 | -57.67564 | 35002 ft | 439 kts | 10° |
| 2026-04-20 16:17 | -30.31543 | -57.65530 | 34996 ft | 438 kts | 10° |
| 2026-04-20 16:18 | -30.25790 | -57.63113 | 34994 ft | 447 kts | 21° |
| 2026-04-20 16:18 | -30.20547 | -57.59083 | 35003 ft | 454 kts | 28° |
| 2026-04-20 16:19 | -30.15381 | -57.54889 | 34998 ft | 454 kts | 28° |
| 2026-04-20 16:19 | -30.10194 | -57.50726 | 34998 ft | 454 kts | 28° |
| 2026-04-20 16:20 | -30.04988 | -57.46590 | 34999 ft | 454 kts | 28° |
| 2026-04-20 16:20 | -29.99767 | -57.42452 | 35002 ft | 455 kts | 28° |
| 2026-04-20 16:21 | -29.94573 | -57.38338 | 34988 ft | 457 kts | 28° |
| 2026-04-20 16:21 | -29.89324 | -57.34186 | 35003 ft | 458 kts | 28° |
| 2026-04-20 16:22 | -29.84059 | -57.30025 | 34995 ft | 459 kts | 28° |
| 2026-04-20 16:22 | -29.78763 | -57.25851 | 34990 ft | 461 kts | 28° |
| 2026-04-20 16:23 | -29.73453 | -57.21666 | 35005 ft | 463 kts | 28° |
| 2026-04-20 16:23 | -29.68128 | -57.17475 | 35002 ft | 464 kts | 28° |
| 2026-04-20 16:24 | -29.62786 | -57.13276 | 34987 ft | 466 kts | 28° |
| 2026-04-20 16:24 | -29.57459 | -57.09094 | 34990 ft | 467 kts | 28° |
| 2026-04-20 16:25 | -29.52090 | -57.04884 | 34992 ft | 468 kts | 28° |
| 2026-04-20 16:25 | -29.46704 | -57.00668 | 34987 ft | 469 kts | 28° |
| 2026-04-20 16:26 | -29.42216 | -56.97159 | 34994 ft | 469 kts | 28° |
| 2026-04-20 16:26 | -29.36819 | -56.92944 | 35007 ft | 470 kts | 29° |
| 2026-04-20 16:27 | -29.31409 | -56.88725 | 34997 ft | 470 kts | 29° |
| 2026-04-20 16:27 | -29.25114 | -56.83821 | 34996 ft | 470 kts | 29° |
| 2026-04-20 16:28 | -29.19697 | -56.79607 | 35000 ft | 471 kts | 28° |
| 2026-04-20 16:28 | -29.15179 | -56.76099 | 34995 ft | 471 kts | 29° |
| 2026-04-20 16:29 | -29.09757 | -56.71894 | 34996 ft | 471 kts | 28° |
| 2026-04-20 16:29 | -29.04323 | -56.67682 | 35000 ft | 471 kts | 29° |
| 2026-04-20 16:30 | -28.98896 | -56.63481 | 35004 ft | 471 kts | 29° |
| 2026-04-20 16:30 | -28.93466 | -56.59281 | 34997 ft | 472 kts | 29° |
| 2026-04-20 16:31 | -28.88024 | -56.55081 | 35010 ft | 472 kts | 29° |
| 2026-04-20 16:31 | -28.82586 | -56.50890 | 35008 ft | 472 kts | 29° |
| 2026-04-20 16:32 | -28.77170 | -56.46724 | 35011 ft | 473 kts | 29° |
| 2026-04-20 16:32 | -28.71700 | -56.42519 | 35007 ft | 473 kts | 29° |
| 2026-04-20 16:33 | -28.66244 | -56.38332 | 35000 ft | 474 kts | 29° |
| 2026-04-20 16:33 | -28.60774 | -56.34136 | 35008 ft | 474 kts | 29° |
| 2026-04-20 16:34 | -28.55299 | -56.29941 | 35015 ft | 474 kts | 29° |
| 2026-04-20 16:34 | -28.49817 | -56.25747 | 35009 ft | 475 kts | 29° |
| 2026-04-20 16:35 | -28.44327 | -56.21552 | 35011 ft | 476 kts | 29° |
| 2026-04-20 16:35 | -28.38826 | -56.17355 | 35011 ft | 477 kts | 29° |
| 2026-04-20 16:36 | -28.33315 | -56.13155 | 35012 ft | 477 kts | 29° |
| 2026-04-20 16:36 | -28.27829 | -56.08979 | 35007 ft | 478 kts | 29° |
| 2026-04-20 16:37 | -28.22305 | -56.04782 | 35005 ft | 478 kts | 29° |
| 2026-04-20 16:37 | -28.16776 | -56.00585 | 35011 ft | 478 kts | 29° |
| 2026-04-20 16:38 | -28.11240 | -55.96386 | 35016 ft | 478 kts | 29° |
| 2026-04-20 16:38 | -28.05707 | -55.92196 | 35017 ft | 478 kts | 29° |
| 2026-04-20 16:39 | -28.00174 | -55.88013 | 35018 ft | 478 kts | 29° |
| 2026-04-20 16:39 | -27.94672 | -55.83857 | 35018 ft | 478 kts | 29° |
| 2026-04-20 16:40 | -27.89139 | -55.79680 | 35018 ft | 478 kts | 29° |
| 2026-04-20 16:40 | -27.83617 | -55.75520 | 35018 ft | 477 kts | 29° |
| 2026-04-20 16:41 | -27.78087 | -55.71358 | 35020 ft | 477 kts | 29° |
| 2026-04-20 16:41 | -27.72556 | -55.67202 | 35022 ft | 477 kts | 29° |
| 2026-04-20 16:42 | -27.67013 | -55.63040 | 35021 ft | 477 kts | 29° |
| 2026-04-20 16:42 | -27.61483 | -55.58892 | 35010 ft | 478 kts | 29° |
| 2026-04-20 16:43 | -27.55985 | -55.54778 | 35011 ft | 477 kts | 29° |
| 2026-04-20 16:43 | -27.50413 | -55.50613 | 34648 ft | 482 kts | 29° |
| 2026-04-20 16:44 | -27.47626 | -55.48526 | 34376 ft | 478 kts | 30° |
| 2026-04-20 16:44 | -27.44859 | -55.46458 | 33768 ft | 477 kts | 30° |
| 2026-04-20 16:44 | -27.42117 | -55.44410 | 33378 ft | 471 kts | 30° |
| 2026-04-20 16:44 | -27.39393 | -55.42378 | 32902 ft | 468 kts | 30° |
| 2026-04-20 16:45 | -27.36687 | -55.40361 | 32430 ft | 464 kts | 30° |
| 2026-04-20 16:45 | -27.34006 | -55.38363 | 31961 ft | 461 kts | 30° |
| 2026-04-20 16:45 | -27.31342 | -55.36380 | 31497 ft | 457 kts | 30° |
| 2026-04-20 16:45 | -27.28702 | -55.34414 | 31041 ft | 454 kts | 30° |
| 2026-04-20 16:46 | -27.26082 | -55.32465 | 30580 ft | 450 kts | 30° |
| 2026-04-20 16:46 | -27.23478 | -55.30529 | 30125 ft | 447 kts | 30° |
| 2026-04-20 16:46 | -27.20901 | -55.28615 | 29666 ft | 443 kts | 30° |
| 2026-04-20 16:46 | -27.18343 | -55.26716 | 29192 ft | 439 kts | 30° |
| 2026-04-20 16:47 | -27.15794 | -55.24825 | 28727 ft | 435 kts | 30° |
| 2026-04-20 16:47 | -27.13275 | -55.22957 | 28257 ft | 432 kts | 30° |
| 2026-04-20 16:47 | -27.10811 | -55.21130 | 27797 ft | 428 kts | 30° |
| 2026-04-20 16:47 | -27.08329 | -55.19290 | 27331 ft | 424 kts | 30° |
| 2026-04-20 16:48 | -27.05873 | -55.17471 | 26874 ft | 421 kts | 30° |
| 2026-04-20 16:48 | -27.03437 | -55.15668 | 26404 ft | 418 kts | 30° |
| 2026-04-20 16:48 | -27.01023 | -55.13882 | 25946 ft | 414 kts | 30° |
| 2026-04-20 16:48 | -26.98622 | -55.12107 | 25490 ft | 411 kts | 30° |
| 2026-04-20 16:49 | -26.96247 | -55.10351 | 25031 ft | 407 kts | 30° |
| 2026-04-20 16:49 | -26.93885 | -55.08607 | 24575 ft | 404 kts | 30° |
| 2026-04-20 16:49 | -26.91551 | -55.06883 | 24126 ft | 400 kts | 30° |
| 2026-04-20 16:49 | -26.89235 | -55.05174 | 23675 ft | 397 kts | 30° |
| 2026-04-20 16:50 | -26.86985 | -55.03514 | 23218 ft | 388 kts | 30° |
| 2026-04-20 16:50 | -26.84746 | -55.01862 | 22789 ft | 382 kts | 30° |
| 2026-04-20 16:50 | -26.82533 | -55.00231 | 22357 ft | 380 kts | 30° |
| 2026-04-20 16:50 | -26.80336 | -54.98615 | 21924 ft | 377 kts | 30° |
| 2026-04-20 16:51 | -26.78154 | -54.97009 | 21489 ft | 375 kts | 30° |
| 2026-04-20 16:51 | -26.75979 | -54.95410 | 21050 ft | 372 kts | 30° |
| 2026-04-20 16:51 | -26.73822 | -54.93824 | 20623 ft | 370 kts | 30° |
| 2026-04-20 16:51 | -26.71681 | -54.92249 | 20193 ft | 367 kts | 30° |
| 2026-04-20 16:52 | -26.69548 | -54.90682 | 19758 ft | 365 kts | 30° |
| 2026-04-20 16:52 | -26.67434 | -54.89129 | 19336 ft | 363 kts | 30° |
| 2026-04-20 16:52 | -26.65331 | -54.87584 | 18910 ft | 360 kts | 30° |
| 2026-04-20 16:52 | -26.63247 | -54.86055 | 18489 ft | 357 kts | 30° |
| 2026-04-20 16:53 | -26.61173 | -54.84533 | 18067 ft | 354 kts | 31° |
| 2026-04-20 16:53 | -26.59142 | -54.83046 | 17645 ft | 352 kts | 31° |
| 2026-04-20 16:53 | -26.57031 | -54.81706 | 17210 ft | 347 kts | 17° |
| 2026-04-20 16:53 | -26.54691 | -54.81223 | 16832 ft | 339 kts | 3° |
| 2026-04-20 16:54 | -26.52350 | -54.81006 | 16412 ft | 338 kts | 3° |
| 2026-04-20 16:54 | -26.50010 | -54.80776 | 16001 ft | 336 kts | 4° |
| 2026-04-20 16:54 | -26.47687 | -54.80543 | 15595 ft | 334 kts | 4° |
| 2026-04-20 16:54 | -26.45374 | -54.80308 | 15185 ft | 332 kts | 4° |
| 2026-04-20 16:55 | -26.43082 | -54.80071 | 14789 ft | 330 kts | 4° |
| 2026-04-20 16:55 | -26.40810 | -54.79833 | 14381 ft | 328 kts | 4° |
| 2026-04-20 16:55 | -26.38547 | -54.79595 | 13997 ft | 325 kts | 4° |
| 2026-04-20 16:55 | -26.36303 | -54.79358 | 13598 ft | 324 kts | 5° |
| 2026-04-20 16:56 | -26.34066 | -54.79123 | 13217 ft | 322 kts | 5° |
| 2026-04-20 16:56 | -26.31838 | -54.78888 | 12804 ft | 321 kts | 5° |
| 2026-04-20 16:56 | -26.29616 | -54.78652 | 12403 ft | 320 kts | 5° |
| 2026-04-20 16:56 | -26.27403 | -54.78420 | 12021 ft | 318 kts | 5° |
| 2026-04-20 16:57 | -26.25208 | -54.78189 | 11647 ft | 316 kts | 5° |
| 2026-04-20 16:57 | -26.23034 | -54.77961 | 11377 ft | 310 kts | 5° |
| 2026-04-20 16:57 | -26.20943 | -54.77741 | 11237 ft | 301 kts | 5° |
| 2026-04-20 16:57 | -26.18886 | -54.77550 | 11095 ft | 292 kts | 3° |
| 2026-04-20 16:58 | -26.16890 | -54.77414 | 10978 ft | 283 kts | 2° |
| 2026-04-20 16:58 | -26.14948 | -54.77294 | 10750 ft | 278 kts | 2° |
| 2026-04-20 16:58 | -26.13016 | -54.77175 | 10470 ft | 277 kts | 2° |
| 2026-04-20 16:58 | -26.11091 | -54.77054 | 10168 ft | 276 kts | 2° |
| 2026-04-20 16:59 | -26.09176 | -54.76932 | 9874 ft | 274 kts | 2° |
| 2026-04-20 16:59 | -26.07277 | -54.76808 | 9586 ft | 273 kts | 2° |
| 2026-04-20 16:59 | -26.05380 | -54.76686 | 9280 ft | 273 kts | 2° |
| 2026-04-20 16:59 | -26.03491 | -54.76562 | 8987 ft | 271 kts | 2° |
| 2026-04-20 17:00 | -25.99749 | -54.76320 | 8398 ft | 268 kts | 2° |
| 2026-04-20 17:00 | -25.97894 | -54.76194 | 8108 ft | 266 kts | 2° |
| 2026-04-20 17:00 | -25.96050 | -54.76071 | 7825 ft | 265 kts | 3° |
| 2026-04-20 17:01 | -25.94207 | -54.75949 | 7538 ft | 264 kts | 3° |
| 2026-04-20 17:01 | -25.92381 | -54.75830 | 7253 ft | 262 kts | 3° |
| 2026-04-20 17:01 | -25.90587 | -54.75712 | 6963 ft | 260 kts | 3° |
| 2026-04-20 17:01 | -25.88785 | -54.75591 | 6694 ft | 259 kts | 3° |
| 2026-04-20 17:02 | -25.86987 | -54.75473 | 6421 ft | 258 kts | 3° |
| 2026-04-20 17:02 | -25.85198 | -54.75356 | 6130 ft | 257 kts | 4° |
| 2026-04-20 17:02 | -25.83407 | -54.75237 | 5844 ft | 256 kts | 4° |
| 2026-04-20 17:02 | -25.81630 | -54.75117 | 5564 ft | 256 kts | 4° |
| 2026-04-20 17:03 | -25.79854 | -54.75001 | 5287 ft | 255 kts | 4° |
| 2026-04-20 17:03 | -25.78087 | -54.74888 | 5033 ft | 251 kts | 4° |
| 2026-04-20 17:03 | -25.76399 | -54.74776 | 4966 ft | 236 kts | 4° |
| 2026-04-20 17:03 | -25.74831 | -54.74674 | 4688 ft | 231 kts | 4° |
| 2026-04-20 17:04 | -25.73278 | -54.74571 | 4569 ft | 220 kts | 4° |
| 2026-04-20 17:04 | -25.71750 | -54.74471 | 4455 ft | 220 kts | 4° |
| 2026-04-20 17:04 | -25.70242 | -54.74255 | 4308 ft | 218 kts | 21° |
| 2026-04-20 17:04 | -25.69105 | -54.73255 | 4184 ft | 209 kts | 53° |
| 2026-04-20 17:05 | -25.68415 | -54.71854 | 3977 ft | 205 kts | 64° |
| 2026-04-20 17:05 | -25.67871 | -54.70408 | 3740 ft | 200 kts | 65° |
| 2026-04-20 17:05 | -25.67349 | -54.68998 | 3517 ft | 196 kts | 65° |
| 2026-04-20 17:05 | -25.66839 | -54.67628 | 3297 ft | 189 kts | 65° |
| 2026-04-20 17:06 | -25.66357 | -54.66290 | 3063 ft | 186 kts | 72° |
| 2026-04-20 17:06 | -25.66405 | -54.64909 | 2946 ft | 182 kts | 110° |
| 2026-04-20 17:06 | -25.66953 | -54.63681 | 2890 ft | 174 kts | 112° |
| 2026-04-20 17:06 | -25.67443 | -54.62471 | 2815 ft | 169 kts | 111° |
| 2026-04-20 17:07 | -25.67918 | -54.61310 | 2766 ft | 161 kts | 111° |
| 2026-04-20 17:07 | -25.68380 | -54.60182 | 2738 ft | 162 kts | 111° |
| 2026-04-20 17:07 | -25.68848 | -54.59041 | 2659 ft | 162 kts | 112° |
| 2026-04-20 17:07 | -25.69320 | -54.57905 | 2549 ft | 163 kts | 112° |
| 2026-04-20 17:08 | -25.69796 | -54.56770 | 2463 ft | 160 kts | 112° |
| 2026-04-20 17:08 | -25.70257 | -54.55667 | 2295 ft | 163 kts | 112° |
| 2026-04-20 17:08 | -25.70738 | -54.54510 | 2086 ft | 164 kts | 112° |
| 2026-04-20 17:08 | -25.71213 | -54.53366 | 1838 ft | 162 kts | 112° |
| 2026-04-20 17:09 | -25.71676 | -54.52261 | 1611 ft | 157 kts | 113° |
| 2026-04-20 17:09 | -25.72129 | -54.51157 | 1409 ft | 156 kts | 113° |
| 2026-04-20 17:09 | -25.72588 | -54.50064 | 1210 ft | 159 kts | 114° |
| 2026-04-20 17:09 | -25.73049 | -54.48965 | 986 ft | 156 kts | 114° |
| 2026-04-20 17:10 | -25.73477 | -54.47948 | 929 ft | 122 kts | 115° |
| 2026-04-20 17:10 | -25.73744 | -54.47309 | 927 ft | 60 kts | 115° |
| 2026-04-20 17:10 | -25.73868 | -54.47013 | 930 ft | 21 kts | 115° |
| 2026-04-20 17:10 | -25.73887 | -54.46909 | 927 ft | 10 kts | 95° |
| 2026-04-20 17:11 | -25.73914 | -54.46853 | 930 ft | 7 kts | 181° |
| 2026-04-20 17:11 | -25.73924 | -54.46890 | 927 ft | 6 kts | 296° |
| 2026-04-20 17:11 | -25.73882 | -54.46979 | 928 ft | 18 kts | 296° |
| 2026-04-20 17:11 | -25.73827 | -54.47106 | 927 ft | 18 kts | 295° |
| 2026-04-20 17:12 | -25.73771 | -54.47227 | 928 ft | 17 kts | 309° |
| 2026-04-20 17:12 | -25.73680 | -54.47310 | 928 ft | 17 kts | 327° |
| 2026-04-20 17:12 | -25.73594 | -54.47378 | 928 ft | 14 kts | 324° |
| 2026-04-20 17:12 | -25.73513 | -54.47442 | 926 ft | 14 kts | 324° |
| 2026-04-20 17:13 | -25.73437 | -54.47502 | 928 ft | 13 kts | 324° |
| 2026-04-20 17:13 | -25.73363 | -54.47560 | 928 ft | 13 kts | 324° |
| 2026-04-20 17:13 | -25.73303 | -54.47621 | 926 ft | 10 kts | 298° |
| 2026-04-20 17:13 | -25.73275 | -54.47684 | 926 ft | 6 kts | 296° |
| 2026-04-20 17:14 | -25.73254 | -54.47725 | 930 ft | 5 kts | 321° |
| 2026-04-20 17:14 | -25.73229 | -54.47718 | 926 ft | 4 kts | 23° |
| 2026-04-20 17:14 | -25.73212 | -54.47709 | 926 ft | 0 kts | 26° |